sensor_id;sensor_type;location;lat;lon;timestamp;P1;durP1;ratioP1;P2;durP2;ratioP2
6463;SDS011;3265;42.694;23.282;2023-01-20T00:01:04;1.17;;;1.13;;
6463;SDS011;3265;42.694;23.282;2023-01-20T00:03:30;1.57;;;1.20;;
6463;SDS011;3265;42.694;23.282;2023-01-20T00:08:56;1.43;;;0.90;;
6463;SDS011;3265;42.694;23.282;2023-01-20T00:11:24;2.63;;;1.13;;
6463;SDS011;3265;42.694;23.282;2023-01-20T00:13:55;1.57;;;1.07;;
6463;SDS011;3265;42.694;23.282;2023-01-20T00:16:22;2.10;;;1.20;;
6463;SDS011;3265;42.694;23.282;2023-01-20T00:18:52;1.30;;;1.20;;
6463;SDS011;3265;42.694;23.282;2023-01-20T00:21:19;2.33;;;1.13;;
6463;SDS011;3265;42.694;23.282;2023-01-20T00:23:48;2.70;;;1.10;;
6463;SDS011;3265;42.694;23.282;2023-01-20T00:26:16;1.47;;;1.30;;
6463;SDS011;3265;42.694;23.282;2023-01-20T00:28:44;1.43;;;1.30;;
6463;SDS011;3265;42.694;23.282;2023-01-20T00:31:12;2.57;;;1.30;;
6463;SDS011;3265;42.694;23.282;2023-01-20T00:33:40;1.67;;;1.50;;
6463;SDS011;3265;42.694;23.282;2023-01-20T00:36:08;3.37;;;1.60;;
6463;SDS011;3265;42.694;23.282;2023-01-20T00:38:36;2.13;;;1.57;;
6463;SDS011;3265;42.694;23.282;2023-01-20T00:41:04;2.00;;;1.63;;
6463;SDS011;3265;42.694;23.282;2023-01-20T00:43:31;2.27;;;1.80;;
6463;SDS011;3265;42.694;23.282;2023-01-20T00:45:58;1.80;;;1.70;;
6463;SDS011;3265;42.694;23.282;2023-01-20T00:48:27;3.33;;;1.90;;
6463;SDS011;3265;42.694;23.282;2023-01-20T00:50:54;2.50;;;1.87;;
6463;SDS011;3265;42.694;23.282;2023-01-20T00:53:21;4.83;;;2.33;;
6463;SDS011;3265;42.694;23.282;2023-01-20T00:55:48;3.67;;;2.10;;
6463;SDS011;3265;42.694;23.282;2023-01-20T00:58:16;2.87;;;2.00;;
6463;SDS011;3265;42.694;23.282;2023-01-20T01:00:45;3.83;;;2.30;;
6463;SDS011;3265;42.694;23.282;2023-01-20T01:03:12;2.37;;;2.03;;
6463;SDS011;3265;42.694;23.282;2023-01-20T01:05:39;3.03;;;1.90;;
6463;SDS011;3265;42.694;23.282;2023-01-20T01:08:06;1.73;;;1.47;;
6463;SDS011;3265;42.694;23.282;2023-01-20T01:10:32;1.50;;;1.40;;
6463;SDS011;3265;42.694;23.282;2023-01-20T01:12:59;1.23;;;1.13;;
6463;SDS011;3265;42.694;23.282;2023-01-20T01:15:29;1.77;;;1.27;;
6463;SDS011;3265;42.694;23.282;2023-01-20T01:17:57;1.33;;;1.23;;
6463;SDS011;3265;42.694;23.282;2023-01-20T01:20:24;1.30;;;1.20;;
6463;SDS011;3265;42.694;23.282;2023-01-20T01:22:52;1.10;;;1.00;;
6463;SDS011;3265;42.694;23.282;2023-01-20T01:25:19;2.17;;;1.10;;
6463;SDS011;3265;42.694;23.282;2023-01-20T01:27:46;2.40;;;1.10;;
6463;SDS011;3265;42.694;23.282;2023-01-20T01:30:13;1.40;;;1.00;;
6463;SDS011;3265;42.694;23.282;2023-01-20T01:32:41;1.20;;;1.10;;
6463;SDS011;3265;42.694;23.282;2023-01-20T01:35:08;1.20;;;1.10;;
6463;SDS011;3265;42.694;23.282;2023-01-20T01:37:35;1.50;;;1.13;;
6463;SDS011;3265;42.694;23.282;2023-01-20T01:40:02;1.97;;;1.30;;
6463;SDS011;3265;42.694;23.282;2023-01-20T01:42:30;1.33;;;1.13;;
6463;SDS011;3265;42.694;23.282;2023-01-20T01:48:03;2.87;;;1.17;;
6463;SDS011;3265;42.694;23.282;2023-01-20T01:50:35;2.03;;;1.20;;
6463;SDS011;3265;42.694;23.282;2023-01-20T01:53:05;2.40;;;1.20;;
6463;SDS011;3265;42.694;23.282;2023-01-20T01:55:36;2.00;;;1.20;;
6463;SDS011;3265;42.694;23.282;2023-01-20T01:58:15;1.30;;;1.10;;
6463;SDS011;3265;42.694;23.282;2023-01-20T02:00:46;2.40;;;1.10;;
6463;SDS011;3265;42.694;23.282;2023-01-20T02:03:15;1.10;;;1.00;;
6463;SDS011;3265;42.694;23.282;2023-01-20T02:05:42;1.57;;;1.10;;
6463;SDS011;3265;42.694;23.282;2023-01-20T02:08:11;1.33;;;1.13;;
6463;SDS011;3265;42.694;23.282;2023-01-20T02:10:38;1.20;;;1.10;;
6463;SDS011;3265;42.694;23.282;2023-01-20T02:13:04;1.80;;;1.30;;
6463;SDS011;3265;42.694;23.282;2023-01-20T02:15:33;1.23;;;1.13;;
6463;SDS011;3265;42.694;23.282;2023-01-20T02:18:20;1.47;;;1.37;;
6463;SDS011;3265;42.694;23.282;2023-01-20T02:27:13;0.93;;;0.93;;
6463;SDS011;3265;42.694;23.282;2023-01-20T02:29:56;2.03;;;1.10;;
6463;SDS011;3265;42.694;23.282;2023-01-20T02:32:40;1.53;;;1.10;;
6463;SDS011;3265;42.694;23.282;2023-01-20T02:35:14;1.13;;;0.90;;
6463;SDS011;3265;42.694;23.282;2023-01-20T02:37:50;1.20;;;1.10;;
6463;SDS011;3265;42.694;23.282;2023-01-20T02:40:28;1.00;;;1.00;;
6463;SDS011;3265;42.694;23.282;2023-01-20T02:42:59;1.00;;;1.00;;
6463;SDS011;3265;42.694;23.282;2023-01-20T02:45:34;1.13;;;1.03;;
6463;SDS011;3265;42.694;23.282;2023-01-20T02:48:13;1.57;;;1.30;;
6463;SDS011;3265;42.694;23.282;2023-01-20T02:50:47;1.60;;;1.30;;
6463;SDS011;3265;42.694;23.282;2023-01-20T02:53:21;1.50;;;1.27;;
6463;SDS011;3265;42.694;23.282;2023-01-20T02:55:52;1.10;;;1.10;;
6463;SDS011;3265;42.694;23.282;2023-01-20T02:58:22;2.13;;;1.17;;
6463;SDS011;3265;42.694;23.282;2023-01-20T03:00:51;3.10;;;1.60;;
6463;SDS011;3265;42.694;23.282;2023-01-20T03:03:24;1.73;;;1.30;;
6463;SDS011;3265;42.694;23.282;2023-01-20T03:05:56;1.50;;;1.20;;
6463;SDS011;3265;42.694;23.282;2023-01-20T03:08:25;3.77;;;1.50;;
6463;SDS011;3265;42.694;23.282;2023-01-20T03:10:55;1.80;;;1.47;;
6463;SDS011;3265;42.694;23.282;2023-01-20T03:13:29;1.67;;;1.40;;
6463;SDS011;3265;42.694;23.282;2023-01-20T03:16:00;2.33;;;1.60;;
6463;SDS011;3265;42.694;23.282;2023-01-20T03:18:31;1.67;;;1.57;;
6463;SDS011;3265;42.694;23.282;2023-01-20T03:21:00;2.17;;;1.80;;
6463;SDS011;3265;42.694;23.282;2023-01-20T03:23:29;1.50;;;1.40;;
6463;SDS011;3265;42.694;23.282;2023-01-20T03:25:59;3.00;;;1.77;;
6463;SDS011;3265;42.694;23.282;2023-01-20T03:28:28;2.43;;;1.47;;
6463;SDS011;3265;42.694;23.282;2023-01-20T03:30:55;5.00;;;1.67;;
6463;SDS011;3265;42.694;23.282;2023-01-20T03:33:23;2.67;;;1.63;;
6463;SDS011;3265;42.694;23.282;2023-01-20T03:35:51;2.10;;;1.90;;
6463;SDS011;3265;42.694;23.282;2023-01-20T03:38:20;2.37;;;1.90;;
6463;SDS011;3265;42.694;23.282;2023-01-20T03:40:47;2.67;;;2.00;;
6463;SDS011;3265;42.694;23.282;2023-01-20T03:43:25;4.63;;;2.63;;
6463;SDS011;3265;42.694;23.282;2023-01-20T03:45:59;5.20;;;2.57;;
6463;SDS011;3265;42.694;23.282;2023-01-20T03:48:33;3.90;;;2.30;;
6463;SDS011;3265;42.694;23.282;2023-01-20T03:51:12;3.13;;;2.23;;
6463;SDS011;3265;42.694;23.282;2023-01-20T03:53:47;3.13;;;1.93;;
6463;SDS011;3265;42.694;23.282;2023-01-20T03:56:19;3.20;;;2.10;;
6463;SDS011;3265;42.694;23.282;2023-01-20T03:58:50;3.63;;;1.80;;
6463;SDS011;3265;42.694;23.282;2023-01-20T04:01:22;6.90;;;1.80;;
6463;SDS011;3265;42.694;23.282;2023-01-20T04:03:55;3.83;;;1.70;;
6463;SDS011;3265;42.694;23.282;2023-01-20T04:06:24;2.40;;;1.60;;
6463;SDS011;3265;42.694;23.282;2023-01-20T04:08:53;3.53;;;1.90;;
6463;SDS011;3265;42.694;23.282;2023-01-20T04:11:24;3.70;;;1.70;;
6463;SDS011;3265;42.694;23.282;2023-01-20T04:13:52;4.03;;;1.70;;
6463;SDS011;3265;42.694;23.282;2023-01-20T04:16:19;4.07;;;1.70;;
6463;SDS011;3265;42.694;23.282;2023-01-20T04:18:48;2.77;;;2.00;;
6463;SDS011;3265;42.694;23.282;2023-01-20T04:21:18;2.97;;;1.97;;
6463;SDS011;3265;42.694;23.282;2023-01-20T04:23:51;2.23;;;1.67;;
6463;SDS011;3265;42.694;23.282;2023-01-20T04:26:22;2.83;;;1.93;;
6463;SDS011;3265;42.694;23.282;2023-01-20T04:28:49;5.47;;;2.10;;
6463;SDS011;3265;42.694;23.282;2023-01-20T04:31:16;4.70;;;1.67;;
6463;SDS011;3265;42.694;23.282;2023-01-20T04:33:43;3.70;;;1.87;;
6463;SDS011;3265;42.694;23.282;2023-01-20T04:36:09;2.97;;;1.80;;
6463;SDS011;3265;42.694;23.282;2023-01-20T04:38:36;3.00;;;2.20;;
6463;SDS011;3265;42.694;23.282;2023-01-20T04:41:05;3.47;;;2.10;;
6463;SDS011;3265;42.694;23.282;2023-01-20T04:43:32;4.03;;;2.37;;
6463;SDS011;3265;42.694;23.282;2023-01-20T04:45:58;2.97;;;2.00;;
6463;SDS011;3265;42.694;23.282;2023-01-20T04:48:25;1.90;;;1.80;;
6463;SDS011;3265;42.694;23.282;2023-01-20T04:50:52;4.63;;;2.37;;
6463;SDS011;3265;42.694;23.282;2023-01-20T04:53:19;4.07;;;2.33;;
6463;SDS011;3265;42.694;23.282;2023-01-20T04:55:46;4.40;;;2.33;;
6463;SDS011;3265;42.694;23.282;2023-01-20T04:58:14;3.43;;;2.23;;
6463;SDS011;3265;42.694;23.282;2023-01-20T05:00:41;4.70;;;2.50;;
6463;SDS011;3265;42.694;23.282;2023-01-20T05:03:07;4.90;;;3.03;;
6463;SDS011;3265;42.694;23.282;2023-01-20T05:05:34;6.93;;;4.00;;
6463;SDS011;3265;42.694;23.282;2023-01-20T05:08:01;5.43;;;3.00;;
6463;SDS011;3265;42.694;23.282;2023-01-20T05:10:29;4.00;;;3.30;;
6463;SDS011;3265;42.694;23.282;2023-01-20T05:12:56;6.00;;;3.37;;
6463;SDS011;3265;42.694;23.282;2023-01-20T05:15:24;4.93;;;3.60;;
6463;SDS011;3265;42.694;23.282;2023-01-20T05:17:51;6.43;;;4.27;;
6463;SDS011;3265;42.694;23.282;2023-01-20T05:20:18;9.77;;;5.93;;
6463;SDS011;3265;42.694;23.282;2023-01-20T05:22:45;19.87;;;10.73;;
6463;SDS011;3265;42.694;23.282;2023-01-20T05:25:12;16.10;;;9.40;;
6463;SDS011;3265;42.694;23.282;2023-01-20T05:27:39;12.10;;;8.40;;
6463;SDS011;3265;42.694;23.282;2023-01-20T05:30:07;17.70;;;9.40;;
6463;SDS011;3265;42.694;23.282;2023-01-20T05:32:36;21.83;;;12.23;;
6463;SDS011;3265;42.694;23.282;2023-01-20T05:35:03;17.80;;;10.67;;
6463;SDS011;3265;42.694;23.282;2023-01-20T05:37:30;23.47;;;14.07;;
6463;SDS011;3265;42.694;23.282;2023-01-20T05:39:57;26.40;;;16.23;;
6463;SDS011;3265;42.694;23.282;2023-01-20T05:42:24;31.33;;;21.57;;
6463;SDS011;3265;42.694;23.282;2023-01-20T05:44:51;37.93;;;24.40;;
6463;SDS011;3265;42.694;23.282;2023-01-20T05:47:17;26.70;;;16.73;;
6463;SDS011;3265;42.694;23.282;2023-01-20T05:49:46;18.63;;;11.10;;
6463;SDS011;3265;42.694;23.282;2023-01-20T05:52:12;19.07;;;10.60;;
6463;SDS011;3265;42.694;23.282;2023-01-20T05:54:39;18.77;;;9.07;;
6463;SDS011;3265;42.694;23.282;2023-01-20T05:57:06;16.73;;;8.53;;
6463;SDS011;3265;42.694;23.282;2023-01-20T05:59:33;12.57;;;7.77;;
6463;SDS011;3265;42.694;23.282;2023-01-20T06:01:59;9.27;;;5.40;;
6463;SDS011;3265;42.694;23.282;2023-01-20T06:04:26;7.43;;;4.67;;
6463;SDS011;3265;42.694;23.282;2023-01-20T06:06:54;6.67;;;4.67;;
6463;SDS011;3265;42.694;23.282;2023-01-20T06:09:21;6.77;;;4.47;;
6463;SDS011;3265;42.694;23.282;2023-01-20T06:11:49;6.27;;;4.50;;
6463;SDS011;3265;42.694;23.282;2023-01-20T06:14:16;5.93;;;4.23;;
6463;SDS011;3265;42.694;23.282;2023-01-20T06:16:43;9.37;;;5.10;;
6463;SDS011;3265;42.694;23.282;2023-01-20T06:19:09;8.30;;;5.50;;
6463;SDS011;3265;42.694;23.282;2023-01-20T06:21:36;11.37;;;5.37;;
6463;SDS011;3265;42.694;23.282;2023-01-20T06:24:08;9.17;;;5.50;;
6463;SDS011;3265;42.694;23.282;2023-01-20T06:26:35;8.73;;;6.10;;
6463;SDS011;3265;42.694;23.282;2023-01-20T06:29:04;12.67;;;6.13;;
6463;SDS011;3265;42.694;23.282;2023-01-20T06:31:30;10.23;;;6.63;;
6463;SDS011;3265;42.694;23.282;2023-01-20T06:33:57;9.70;;;6.13;;
6463;SDS011;3265;42.694;23.282;2023-01-20T06:36:24;10.67;;;5.60;;
6463;SDS011;3265;42.694;23.282;2023-01-20T06:38:51;15.60;;;7.87;;
6463;SDS011;3265;42.694;23.282;2023-01-20T06:41:20;22.57;;;12.23;;
6463;SDS011;3265;42.694;23.282;2023-01-20T06:43:47;27.30;;;17.13;;
6463;SDS011;3265;42.694;23.282;2023-01-20T06:46:14;15.27;;;9.50;;
6463;SDS011;3265;42.694;23.282;2023-01-20T06:48:42;19.70;;;10.20;;
6463;SDS011;3265;42.694;23.282;2023-01-20T06:51:10;17.67;;;10.47;;
6463;SDS011;3265;42.694;23.282;2023-01-20T06:53:38;11.37;;;6.93;;
6463;SDS011;3265;42.694;23.282;2023-01-20T06:56:05;7.97;;;5.40;;
6463;SDS011;3265;42.694;23.282;2023-01-20T06:58:34;7.20;;;4.97;;
6463;SDS011;3265;42.694;23.282;2023-01-20T07:01:04;8.77;;;4.30;;
6463;SDS011;3265;42.694;23.282;2023-01-20T07:03:34;7.80;;;4.40;;
6463;SDS011;3265;42.694;23.282;2023-01-20T07:06:01;7.90;;;4.70;;
6463;SDS011;3265;42.694;23.282;2023-01-20T07:08:29;8.63;;;4.40;;
6463;SDS011;3265;42.694;23.282;2023-01-20T07:10:57;8.27;;;4.50;;
6463;SDS011;3265;42.694;23.282;2023-01-20T07:13:23;7.77;;;3.77;;
6463;SDS011;3265;42.694;23.282;2023-01-20T07:15:54;7.10;;;4.07;;
6463;SDS011;3265;42.694;23.282;2023-01-20T07:18:21;6.10;;;3.90;;
6463;SDS011;3265;42.694;23.282;2023-01-20T07:20:51;7.17;;;4.00;;
6463;SDS011;3265;42.694;23.282;2023-01-20T07:23:19;10.80;;;4.80;;
6463;SDS011;3265;42.694;23.282;2023-01-20T07:25:45;6.40;;;4.47;;
6463;SDS011;3265;42.694;23.282;2023-01-20T07:28:12;7.67;;;4.80;;
6463;SDS011;3265;42.694;23.282;2023-01-20T07:30:40;6.93;;;4.83;;
6463;SDS011;3265;42.694;23.282;2023-01-20T07:33:18;5.30;;;4.43;;
6463;SDS011;3265;42.694;23.282;2023-01-20T07:35:49;7.47;;;4.87;;
6463;SDS011;3265;42.694;23.282;2023-01-20T07:38:20;5.53;;;4.57;;
6463;SDS011;3265;42.694;23.282;2023-01-20T07:40:46;10.70;;;5.00;;
6463;SDS011;3265;42.694;23.282;2023-01-20T07:43:29;8.43;;;4.30;;
6463;SDS011;3265;42.694;23.282;2023-01-20T07:46:03;6.17;;;4.67;;
6463;SDS011;3265;42.694;23.282;2023-01-20T07:48:35;6.77;;;4.37;;
6463;SDS011;3265;42.694;23.282;2023-01-20T07:51:14;10.77;;;7.73;;
6463;SDS011;3265;42.694;23.282;2023-01-20T07:53:45;14.83;;;8.87;;
6463;SDS011;3265;42.694;23.282;2023-01-20T07:56:16;10.43;;;7.90;;
6463;SDS011;3265;42.694;23.282;2023-01-20T07:58:47;10.13;;;6.90;;
6463;SDS011;3265;42.694;23.282;2023-01-20T08:01:16;6.73;;;4.53;;
6463;SDS011;3265;42.694;23.282;2023-01-20T08:03:49;8.63;;;4.37;;
6463;SDS011;3265;42.694;23.282;2023-01-20T08:06:25;6.30;;;4.13;;
6463;SDS011;3265;42.694;23.282;2023-01-20T08:08:53;6.40;;;4.37;;
6463;SDS011;3265;42.694;23.282;2023-01-20T08:11:20;6.13;;;4.63;;
6463;SDS011;3265;42.694;23.282;2023-01-20T08:13:51;8.17;;;4.60;;
6463;SDS011;3265;42.694;23.282;2023-01-20T08:16:18;9.07;;;4.50;;
6463;SDS011;3265;42.694;23.282;2023-01-20T08:18:45;5.77;;;3.73;;
6463;SDS011;3265;42.694;23.282;2023-01-20T08:21:23;5.60;;;4.10;;
6463;SDS011;3265;42.694;23.282;2023-01-20T08:23:55;6.20;;;4.30;;
6463;SDS011;3265;42.694;23.282;2023-01-20T08:26:26;6.07;;;4.00;;
6463;SDS011;3265;42.694;23.282;2023-01-20T08:28:54;6.50;;;4.20;;
6463;SDS011;3265;42.694;23.282;2023-01-20T08:31:21;8.90;;;4.20;;
6463;SDS011;3265;42.694;23.282;2023-01-20T08:33:51;9.93;;;4.70;;
6463;SDS011;3265;42.694;23.282;2023-01-20T08:36:21;8.60;;;4.57;;
6463;SDS011;3265;42.694;23.282;2023-01-20T08:38:51;6.50;;;4.33;;
6463;SDS011;3265;42.694;23.282;2023-01-20T08:41:27;5.73;;;4.13;;
6463;SDS011;3265;42.694;23.282;2023-01-20T08:43:57;6.77;;;4.90;;
6463;SDS011;3265;42.694;23.282;2023-01-20T08:46:37;8.70;;;4.80;;
6463;SDS011;3265;42.694;23.282;2023-01-20T08:49:05;8.23;;;5.37;;
6463;SDS011;3265;42.694;23.282;2023-01-20T08:51:34;6.57;;;4.93;;
6463;SDS011;3265;42.694;23.282;2023-01-20T08:54:01;14.30;;;6.17;;
6463;SDS011;3265;42.694;23.282;2023-01-20T08:56:28;12.83;;;6.30;;
6463;SDS011;3265;42.694;23.282;2023-01-20T08:58:56;11.60;;;6.13;;
6463;SDS011;3265;42.694;23.282;2023-01-20T09:01:24;11.50;;;6.70;;
6463;SDS011;3265;42.694;23.282;2023-01-20T09:03:54;10.00;;;6.23;;
6463;SDS011;3265;42.694;23.282;2023-01-20T09:06:21;9.20;;;5.90;;
6463;SDS011;3265;42.694;23.282;2023-01-20T09:08:50;11.60;;;5.93;;
6463;SDS011;3265;42.694;23.282;2023-01-20T09:11:19;10.77;;;6.07;;
6463;SDS011;3265;42.694;23.282;2023-01-20T09:13:47;14.27;;;5.90;;
6463;SDS011;3265;42.694;23.282;2023-01-20T09:16:14;13.50;;;5.77;;
6463;SDS011;3265;42.694;23.282;2023-01-20T09:18:42;11.43;;;5.70;;
6463;SDS011;3265;42.694;23.282;2023-01-20T09:21:09;10.23;;;5.07;;
6463;SDS011;3265;42.694;23.282;2023-01-20T09:23:37;8.03;;;5.23;;
6463;SDS011;3265;42.694;23.282;2023-01-20T09:26:06;17.43;;;7.70;;
6463;SDS011;3265;42.694;23.282;2023-01-20T09:28:34;4.33;;;2.97;;
6463;SDS011;3265;42.694;23.282;2023-01-20T09:31:01;5.53;;;3.20;;
6463;SDS011;3265;42.694;23.282;2023-01-20T09:33:30;7.10;;;3.70;;
6463;SDS011;3265;42.694;23.282;2023-01-20T09:36:00;5.27;;;2.10;;
6463;SDS011;3265;42.694;23.282;2023-01-20T09:38:27;6.20;;;2.37;;
6463;SDS011;3265;42.694;23.282;2023-01-20T09:41:15;6.90;;;2.50;;
6463;SDS011;3265;42.694;23.282;2023-01-20T09:44:04;4.17;;;2.20;;
6463;SDS011;3265;42.694;23.282;2023-01-20T09:46:55;2.90;;;1.97;;
6463;SDS011;3265;42.694;23.282;2023-01-20T09:49:47;2.23;;;1.90;;
6463;SDS011;3265;42.694;23.282;2023-01-20T09:52:43;3.13;;;2.10;;
6463;SDS011;3265;42.694;23.282;2023-01-20T09:55:31;2.83;;;2.00;;
6463;SDS011;3265;42.694;23.282;2023-01-20T09:58:08;4.90;;;2.77;;
6463;SDS011;3265;42.694;23.282;2023-01-20T10:00:43;5.33;;;2.53;;
6463;SDS011;3265;42.694;23.282;2023-01-20T10:03:15;5.70;;;2.77;;
6463;SDS011;3265;42.694;23.282;2023-01-20T10:05:46;4.03;;;2.80;;
6463;SDS011;3265;42.694;23.282;2023-01-20T10:08:18;5.03;;;2.50;;
6463;SDS011;3265;42.694;23.282;2023-01-20T10:10:49;3.60;;;2.60;;
6463;SDS011;3265;42.694;23.282;2023-01-20T10:13:24;4.03;;;3.10;;
6463;SDS011;3265;42.694;23.282;2023-01-20T10:15:56;5.63;;;2.83;;
6463;SDS011;3265;42.694;23.282;2023-01-20T10:18:34;6.93;;;3.00;;
6463;SDS011;3265;42.694;23.282;2023-01-20T10:21:06;5.50;;;3.10;;
6463;SDS011;3265;42.694;23.282;2023-01-20T10:23:38;6.33;;;3.83;;
6463;SDS011;3265;42.694;23.282;2023-01-20T10:26:10;4.20;;;3.47;;
6463;SDS011;3265;42.694;23.282;2023-01-20T10:28:44;5.03;;;3.10;;
6463;SDS011;3265;42.694;23.282;2023-01-20T10:31:20;5.57;;;3.23;;
6463;SDS011;3265;42.694;23.282;2023-01-20T10:33:51;4.07;;;3.40;;
6463;SDS011;3265;42.694;23.282;2023-01-20T10:36:23;6.50;;;3.83;;
6463;SDS011;3265;42.694;23.282;2023-01-20T10:38:53;5.13;;;3.20;;
6463;SDS011;3265;42.694;23.282;2023-01-20T10:41:25;8.87;;;3.00;;
6463;SDS011;3265;42.694;23.282;2023-01-20T10:43:59;5.33;;;3.20;;
6463;SDS011;3265;42.694;23.282;2023-01-20T10:46:33;5.63;;;3.73;;
6463;SDS011;3265;42.694;23.282;2023-01-20T10:49:18;9.67;;;6.43;;
6463;SDS011;3265;42.694;23.282;2023-01-20T10:52:22;22.17;;;12.93;;
6463;SDS011;3265;42.694;23.282;2023-01-20T10:55:00;16.20;;;10.50;;
6463;SDS011;3265;42.694;23.282;2023-01-20T10:57:37;20.17;;;13.07;;
6463;SDS011;3265;42.694;23.282;2023-01-20T11:00:12;22.53;;;16.13;;
6463;SDS011;3265;42.694;23.282;2023-01-20T11:02:42;23.60;;;18.03;;
6463;SDS011;3265;42.694;23.282;2023-01-20T11:05:15;27.67;;;19.23;;
6463;SDS011;3265;42.694;23.282;2023-01-20T11:07:43;44.43;;;31.87;;
6463;SDS011;3265;42.694;23.282;2023-01-20T11:10:15;51.97;;;35.83;;
6463;SDS011;3265;42.694;23.282;2023-01-20T11:12:43;43.53;;;29.43;;
6463;SDS011;3265;42.694;23.282;2023-01-20T11:15:18;49.00;;;34.00;;
6463;SDS011;3265;42.694;23.282;2023-01-20T11:17:53;45.03;;;32.77;;
6463;SDS011;3265;42.694;23.282;2023-01-20T11:20:51;46.37;;;31.93;;
6463;SDS011;3265;42.694;23.282;2023-01-20T11:23:20;56.97;;;38.50;;
6463;SDS011;3265;42.694;23.282;2023-01-20T11:25:52;59.47;;;38.17;;
6463;SDS011;3265;42.694;23.282;2023-01-20T11:28:20;30.53;;;18.87;;
6463;SDS011;3265;42.694;23.282;2023-01-20T11:30:52;26.93;;;14.60;;
6463;SDS011;3265;42.694;23.282;2023-01-20T11:33:23;13.60;;;8.00;;
6463;SDS011;3265;42.694;23.282;2023-01-20T11:35:55;10.43;;;5.53;;
6463;SDS011;3265;42.694;23.282;2023-01-20T11:38:26;7.37;;;4.33;;
6463;SDS011;3265;42.694;23.282;2023-01-20T11:40:55;12.03;;;6.57;;
6463;SDS011;3265;42.694;23.282;2023-01-20T11:43:26;7.47;;;4.47;;
6463;SDS011;3265;42.694;23.282;2023-01-20T11:46:08;8.20;;;5.83;;
6463;SDS011;3265;42.694;23.282;2023-01-20T11:48:46;5.10;;;3.77;;
6463;SDS011;3265;42.694;23.282;2023-01-20T11:51:17;4.03;;;2.63;;
6463;SDS011;3265;42.694;23.282;2023-01-20T11:53:49;9.77;;;5.47;;
6463;SDS011;3265;42.694;23.282;2023-01-20T11:56:17;10.73;;;5.37;;
6463;SDS011;3265;42.694;23.282;2023-01-20T11:58:49;6.47;;;4.20;;
6463;SDS011;3265;42.694;23.282;2023-01-20T12:01:23;9.37;;;4.70;;
6463;SDS011;3265;42.694;23.282;2023-01-20T12:06:49;5.33;;;3.63;;
6463;SDS011;3265;42.694;23.282;2023-01-20T12:09:22;7.73;;;4.73;;
6463;SDS011;3265;42.694;23.282;2023-01-20T12:11:55;7.87;;;3.63;;
6463;SDS011;3265;42.694;23.282;2023-01-20T12:14:26;6.00;;;3.47;;
6463;SDS011;3265;42.694;23.282;2023-01-20T12:17:02;8.30;;;4.20;;
6463;SDS011;3265;42.694;23.282;2023-01-20T12:19:47;8.30;;;4.47;;
6463;SDS011;3265;42.694;23.282;2023-01-20T12:22:26;4.40;;;2.50;;
6463;SDS011;3265;42.694;23.282;2023-01-20T12:25:02;3.07;;;2.00;;
6463;SDS011;3265;42.694;23.282;2023-01-20T12:27:47;4.40;;;2.47;;
6463;SDS011;3265;42.694;23.282;2023-01-20T12:30:23;13.07;;;8.40;;
6463;SDS011;3265;42.694;23.282;2023-01-20T12:33:16;9.63;;;4.73;;
6463;SDS011;3265;42.694;23.282;2023-01-20T12:39:03;3.13;;;2.33;;
6463;SDS011;3265;42.694;23.282;2023-01-20T12:42:05;6.27;;;3.00;;
6463;SDS011;3265;42.694;23.282;2023-01-20T12:44:48;6.10;;;3.70;;
6463;SDS011;3265;42.694;23.282;2023-01-20T12:47:21;7.93;;;3.80;;
6463;SDS011;3265;42.694;23.282;2023-01-20T12:50:02;6.43;;;4.30;;
6463;SDS011;3265;42.694;23.282;2023-01-20T12:52:50;9.63;;;4.53;;
6463;SDS011;3265;42.694;23.282;2023-01-20T12:55:33;5.90;;;4.23;;
6463;SDS011;3265;42.694;23.282;2023-01-20T12:58:19;9.87;;;5.77;;
6463;SDS011;3265;42.694;23.282;2023-01-20T13:00:58;12.47;;;7.33;;
6463;SDS011;3265;42.694;23.282;2023-01-20T13:03:45;15.13;;;8.70;;
6463;SDS011;3265;42.694;23.282;2023-01-20T13:06:48;14.10;;;8.90;;
6463;SDS011;3265;42.694;23.282;2023-01-20T13:09:39;29.93;;;14.63;;
6463;SDS011;3265;42.694;23.282;2023-01-20T13:12:19;33.67;;;19.30;;
6463;SDS011;3265;42.694;23.282;2023-01-20T13:14:57;35.27;;;22.80;;
6463;SDS011;3265;42.694;23.282;2023-01-20T13:17:33;22.17;;;14.70;;
6463;SDS011;3265;42.694;23.282;2023-01-20T13:20:04;20.20;;;13.33;;
6463;SDS011;3265;42.694;23.282;2023-01-20T13:22:41;13.23;;;8.07;;
6463;SDS011;3265;42.694;23.282;2023-01-20T13:25:12;12.27;;;6.40;;
6463;SDS011;3265;42.694;23.282;2023-01-20T13:27:43;12.37;;;7.53;;
6463;SDS011;3265;42.694;23.282;2023-01-20T13:33:12;17.70;;;9.60;;
6463;SDS011;3265;42.694;23.282;2023-01-20T13:35:45;19.07;;;9.27;;
6463;SDS011;3265;42.694;23.282;2023-01-20T13:38:21;12.90;;;7.83;;
6463;SDS011;3265;42.694;23.282;2023-01-20T13:40:51;16.23;;;9.63;;
6463;SDS011;3265;42.694;23.282;2023-01-20T13:43:36;14.00;;;9.17;;
6463;SDS011;3265;42.694;23.282;2023-01-20T13:49:28;17.30;;;11.43;;
6463;SDS011;3265;42.694;23.282;2023-01-20T13:52:10;12.60;;;8.77;;
6463;SDS011;3265;42.694;23.282;2023-01-20T13:54:40;6.83;;;4.60;;
6463;SDS011;3265;42.694;23.282;2023-01-20T14:00:17;5.30;;;3.20;;
6463;SDS011;3265;42.694;23.282;2023-01-20T14:02:45;7.33;;;3.60;;
6463;SDS011;3265;42.694;23.282;2023-01-20T14:05:24;5.57;;;4.10;;
6463;SDS011;3265;42.694;23.282;2023-01-20T14:07:56;8.57;;;4.17;;
6463;SDS011;3265;42.694;23.282;2023-01-20T14:10:24;7.70;;;5.40;;
6463;SDS011;3265;42.694;23.282;2023-01-20T14:12:52;6.80;;;3.87;;
6463;SDS011;3265;42.694;23.282;2023-01-20T14:15:23;3.27;;;2.00;;
6463;SDS011;3265;42.694;23.282;2023-01-20T14:17:57;3.13;;;2.47;;
6463;SDS011;3265;42.694;23.282;2023-01-20T14:20:25;3.13;;;2.30;;
6463;SDS011;3265;42.694;23.282;2023-01-20T14:22:53;14.20;;;9.90;;
6463;SDS011;3265;42.694;23.282;2023-01-20T14:25:21;12.73;;;10.00;;
6463;SDS011;3265;42.694;23.282;2023-01-20T14:27:50;9.90;;;6.07;;
6463;SDS011;3265;42.694;23.282;2023-01-20T14:30:20;6.30;;;4.20;;
6463;SDS011;3265;42.694;23.282;2023-01-20T14:32:48;6.13;;;3.70;;
6463;SDS011;3265;42.694;23.282;2023-01-20T14:35:16;4.10;;;3.00;;
6463;SDS011;3265;42.694;23.282;2023-01-20T14:37:48;8.07;;;4.40;;
6463;SDS011;3265;42.694;23.282;2023-01-20T14:40:18;4.43;;;2.90;;
6463;SDS011;3265;42.694;23.282;2023-01-20T14:42:55;1.90;;;1.70;;
6463;SDS011;3265;42.694;23.282;2023-01-20T14:45:24;2.00;;;1.80;;
6463;SDS011;3265;42.694;23.282;2023-01-20T14:47:53;1.80;;;1.60;;
6463;SDS011;3265;42.694;23.282;2023-01-20T14:50:21;1.83;;;1.73;;
6463;SDS011;3265;42.694;23.282;2023-01-20T14:52:49;2.47;;;2.10;;
6463;SDS011;3265;42.694;23.282;2023-01-20T14:55:29;2.47;;;2.27;;
6463;SDS011;3265;42.694;23.282;2023-01-20T14:57:58;2.10;;;1.90;;
6463;SDS011;3265;42.694;23.282;2023-01-20T15:00:27;2.37;;;2.17;;
6463;SDS011;3265;42.694;23.282;2023-01-20T15:02:55;3.17;;;2.40;;
6463;SDS011;3265;42.694;23.282;2023-01-20T15:05:30;2.73;;;2.33;;
6463;SDS011;3265;42.694;23.282;2023-01-20T15:08:16;3.10;;;2.80;;
6463;SDS011;3265;42.694;23.282;2023-01-20T15:10:47;3.20;;;2.90;;
6463;SDS011;3265;42.694;23.282;2023-01-20T15:16:49;5.00;;;3.10;;
6463;SDS011;3265;42.694;23.282;2023-01-20T15:22:21;5.93;;;3.40;;
6463;SDS011;3265;42.694;23.282;2023-01-20T15:24:49;3.43;;;2.93;;
6463;SDS011;3265;42.694;23.282;2023-01-20T15:27:23;2.83;;;2.57;;
6463;SDS011;3265;42.694;23.282;2023-01-20T15:29:59;3.10;;;2.60;;
6463;SDS011;3265;42.694;23.282;2023-01-20T15:32:30;2.60;;;2.40;;
6463;SDS011;3265;42.694;23.282;2023-01-20T15:34:59;2.50;;;2.30;;
6463;SDS011;3265;42.694;23.282;2023-01-20T15:37:26;2.70;;;2.37;;
6463;SDS011;3265;42.694;23.282;2023-01-20T15:39:55;2.60;;;2.40;;
6463;SDS011;3265;42.694;23.282;2023-01-20T15:42:23;2.90;;;2.67;;
6463;SDS011;3265;42.694;23.282;2023-01-20T15:44:50;4.17;;;2.60;;
6463;SDS011;3265;42.694;23.282;2023-01-20T15:47:18;2.90;;;2.60;;
6463;SDS011;3265;42.694;23.282;2023-01-20T15:49:51;3.47;;;2.70;;
6463;SDS011;3265;42.694;23.282;2023-01-20T15:52:18;3.20;;;2.90;;
6463;SDS011;3265;42.694;23.282;2023-01-20T15:54:45;3.63;;;2.97;;
6463;SDS011;3265;42.694;23.282;2023-01-20T15:57:11;3.47;;;2.73;;